首页
METAR-TAF:

METAR-TAF

机场 :

拉姆薩爾, 伊朗

纬度: 36-54N, 经度: 050-40E, 海拔: -23米

当前天气观测

该预报发布于46分钟前的01:00 UTC
风速2节,风向南转西南
温度 20°C
湿度 94%
气压 1012 hPa
能见度10公里或以上
少量云层高于2000英尺, 积雨云.
散云层高于2500英尺
多云层高于9000英尺

METAR: OINR 310100Z 20002KT 9999 FEW020CB SCT025 BKN090 20/19 Q1012

时间: 06:16 (01:46 UTC)


TAF: 丢失

超过4000个机场的气象观测和天气预报(METAR&TAF报告)。

可查询的气象台以黄色和红色小点在地图上表示。

将鼠标移到小点上方,可查看气象台名称。

然后点击查看天气观测和预报。

如需切换地图:点击带黑十字的绿色按钮放大地图;点击带横线的绿色按钮缩小地图;或者点击绿色箭头查看邻近地区的地图。


METAR-TAF: